createdAt,value
2019-04-23T00:02:26.568Z,10.60
2019-04-23T00:04:57.403Z,10.50
2019-04-23T00:07:39.545Z,10.50
2019-04-23T00:10:03.475Z,10.40
2019-04-23T00:12:38.956Z,10.40
2019-04-23T00:17:37.325Z,10.30
2019-04-23T00:20:12.591Z,10.20
2019-04-23T00:25:49.815Z,10.10
2019-04-23T00:28:23.058Z,10.10
2019-04-23T00:30:50.012Z,10.10
2019-04-23T00:33:20.210Z,10.00
2019-04-23T00:36:02.628Z,10.00
2019-04-23T00:40:51.350Z,10.00
2019-04-23T00:43:22.274Z,10.00
2019-04-23T00:45:54.791Z,9.90
2019-04-23T00:50:57.449Z,9.90
2019-04-23T00:53:27.011Z,9.90
2019-04-23T00:56:20.650Z,9.80
2019-04-23T00:58:33.711Z,9.80
2019-04-23T01:00:57.922Z,9.70
2019-04-23T01:03:26.709Z,9.70
2019-04-23T01:06:07.760Z,9.70
2019-04-23T01:08:35.624Z,9.70
2019-04-23T01:13:43.238Z,9.60
2019-04-23T01:16:09.965Z,9.60
2019-04-23T01:18:54.459Z,9.50
2019-04-23T01:21:13.843Z,9.50
2019-04-23T01:24:04.415Z,9.50
2019-04-23T01:27:22.155Z,9.50
2019-04-23T01:29:50.725Z,9.50
2019-04-23T01:32:17.538Z,9.50
2019-04-23T01:34:52.005Z,9.50
2019-04-23T01:37:20.917Z,9.40
2019-04-23T01:39:53.125Z,9.40
2019-04-23T01:42:28.434Z,9.30
2019-04-23T01:45:01.358Z,9.30
2019-04-23T01:47:33.592Z,9.30
2019-04-23T01:50:02.651Z,9.30
2019-04-23T01:52:31.983Z,9.20
2019-04-23T01:55:01.455Z,9.30
2019-04-23T01:57:30.870Z,9.20
2019-04-23T02:00:08.813Z,9.20
2019-04-23T02:05:10.721Z,9.10
2019-04-23T02:07:44.478Z,9.10
2019-04-23T02:10:14.180Z,9.10
2019-04-23T02:12:42.280Z,9.10
2019-04-23T02:15:18.080Z,9.10
2019-04-23T02:17:44.318Z,9.00
2019-04-23T02:23:21.886Z,9.00
2019-04-23T02:31:18.598Z,8.90
2019-04-23T02:38:38.834Z,8.80
2019-04-23T02:46:04.596Z,8.80
2019-04-23T02:48:36.230Z,8.70
2019-04-23T02:50:54.187Z,8.70
2019-04-23T03:03:51.340Z,8.60
2019-04-23T03:14:01.066Z,8.40
2019-04-23T03:16:29.447Z,8.40
2019-04-23T03:19:02.106Z,8.30
2019-04-23T03:21:56.077Z,8.30
2019-04-23T03:24:55.063Z,8.30
2019-04-23T03:27:28.877Z,8.30
2019-04-23T03:34:34.554Z,8.30
2019-04-23T03:37:49.312Z,8.30
2019-04-23T03:40:07.947Z,8.30
2019-04-23T03:45:16.736Z,8.10
2019-04-23T03:50:14.928Z,8.10
2019-04-23T03:52:40.546Z,8.10
2019-04-23T03:57:46.968Z,8.40
2019-04-23T04:00:31.063Z,8.60
2019-04-23T04:05:35.911Z,9.30
2019-04-23T04:08:05.011Z,9.60
2019-04-23T04:10:20.440Z,10.00
2019-04-23T04:12:45.563Z,10.20
2019-04-23T04:15:43.711Z,10.10
2019-04-23T04:20:37.713Z,10.70
2019-04-23T04:23:09.380Z,11.00
2019-04-23T04:25:33.681Z,11.40
2019-04-23T04:30:41.008Z,12.20
2019-04-23T04:33:29.921Z,12.80
2019-04-23T04:36:10.496Z,12.30
2019-04-23T04:38:37.778Z,11.60
2019-04-23T04:43:31.653Z,10.80
2019-04-23T04:48:36.968Z,10.30
2019-04-23T04:51:08.408Z,10.20
2019-04-23T04:56:19.557Z,10.00
2019-04-23T04:58:40.707Z,10.00
2019-04-23T05:01:08.204Z,9.80
2019-04-23T05:06:33.545Z,9.80
2019-04-23T05:16:18.349Z,9.90
2019-04-23T05:18:53.664Z,10.10
2019-04-23T05:21:37.051Z,10.20
2019-04-23T05:23:54.071Z,10.20
2019-04-23T05:26:29.321Z,10.30
2019-04-23T05:33:59.954Z,10.50
2019-04-23T05:36:28.460Z,10.50
2019-04-23T05:41:40.081Z,10.80
2019-04-23T05:44:02.238Z,11.00
2019-04-23T05:46:33.123Z,11.00
2019-04-23T05:49:07.645Z,11.10
2019-04-23T05:54:08.350Z,11.10
2019-04-23T05:56:42.263Z,11.20
2019-04-23T05:59:12.967Z,11.20
2019-04-23T06:04:17.626Z,11.20
2019-04-23T06:09:23.040Z,11.20
2019-04-23T06:11:58.684Z,11.20
2019-04-23T06:14:20.415Z,11.20
2019-04-23T06:17:02.116Z,11.30
2019-04-23T06:19:20.784Z,11.50
2019-04-23T06:22:11.198Z,11.60
2019-04-23T06:24:26.118Z,11.60
2019-04-23T06:27:05.244Z,11.80
2019-04-23T06:29:39.554Z,11.60
2019-04-23T06:31:59.731Z,11.80
2019-04-23T06:34:31.180Z,11.90
2019-04-23T06:37:02.116Z,11.80
2019-04-23T06:39:35.866Z,11.80
2019-04-23T06:42:09.596Z,11.80
2019-04-23T06:44:58.461Z,11.80
2019-04-23T06:47:24.756Z,11.90
2019-04-23T06:49:58.127Z,11.90
2019-04-23T06:52:24.863Z,12.10
2019-04-23T06:57:41.042Z,12.30
2019-04-23T07:00:10.206Z,12.20
2019-04-23T07:02:42.164Z,12.40
2019-04-23T07:07:59.701Z,12.70
2019-04-23T07:10:13.027Z,12.90
2019-04-23T07:15:40.821Z,13.40
2019-04-23T07:17:51.239Z,13.50
2019-04-23T07:20:25.171Z,13.70
2019-04-23T07:22:57.036Z,13.90
2019-04-23T07:27:56.884Z,14.00
2019-04-23T07:30:29.697Z,14.10
2019-04-23T07:32:58.774Z,14.10
2019-04-23T07:35:25.926Z,14.00
2019-04-23T07:38:08.935Z,13.90
2019-04-23T07:40:54.410Z,13.80
2019-04-23T07:43:23.498Z,13.80
2019-04-23T07:46:29.875Z,13.80
2019-04-23T07:48:47.976Z,13.70
2019-04-23T07:51:24.078Z,13.80
2019-04-23T07:54:05.878Z,14.00
2019-04-23T07:56:41.940Z,14.10
2019-04-23T07:58:56.810Z,14.20
2019-04-23T08:01:32.009Z,14.10
2019-04-23T08:04:16.611Z,14.00
2019-04-23T08:06:30.004Z,14.00
2019-04-23T08:09:06.632Z,14.10
2019-04-23T08:14:15.080Z,14.50
2019-04-23T08:19:25.588Z,14.70
2019-04-23T08:21:41.076Z,14.70
2019-04-23T08:24:38.191Z,14.70
2019-04-23T08:27:24.208Z,14.80
2019-04-23T08:29:54.396Z,14.80
2019-04-23T08:32:19.017Z,14.70
2019-04-23T08:34:54.702Z,14.80
2019-04-23T08:37:26.595Z,15.00
2019-04-23T08:42:46.818Z,15.10
2019-04-23T08:45:21.820Z,15.10
2019-04-23T08:48:17.037Z,15.20
2019-04-23T08:50:44.287Z,15.30
2019-04-23T09:05:57.681Z,15.70
2019-04-23T09:11:04.424Z,15.60
2019-04-23T09:16:08.902Z,15.90
2019-04-23T09:18:32.723Z,16.10
2019-04-23T09:21:07.343Z,16.40
2019-04-23T09:23:43.792Z,16.50
2019-04-23T09:26:24.573Z,16.40
2019-04-23T09:31:43.563Z,17.00
2019-04-23T09:34:07.811Z,16.90
2019-04-23T09:36:53.704Z,17.20
2019-04-23T09:39:43.113Z,17.30
2019-04-23T09:42:16.056Z,17.40
2019-04-23T09:45:23.158Z,17.70
2019-04-23T09:48:11.950Z,17.80
2019-04-23T09:50:57.159Z,17.90
2019-04-23T09:53:26.844Z,17.70
2019-04-23T09:55:46.798Z,17.80
2019-04-23T09:58:38.041Z,17.80
2019-04-23T10:01:20.870Z,17.80
2019-04-23T10:03:38.980Z,17.70
2019-04-23T10:06:03.002Z,17.50
2019-04-23T10:08:31.243Z,17.30
2019-04-23T10:10:55.624Z,17.30
2019-04-23T10:13:26.137Z,17.20
2019-04-23T10:15:55.976Z,17.20
2019-04-23T10:18:26.838Z,17.30
2019-04-23T10:20:56.822Z,17.40
2019-04-23T10:23:27.290Z,17.60
2019-04-23T10:25:58.262Z,18.00
2019-04-23T10:28:31.847Z,18.20
2019-04-23T10:31:02.740Z,18.50
2019-04-23T10:33:32.490Z,18.50
2019-04-23T10:36:08.523Z,18.30
2019-04-23T10:38:34.646Z,17.80
2019-04-23T10:41:06.410Z,17.90
2019-04-23T10:43:39.317Z,18.00
2019-04-23T10:46:48.604Z,18.10
2019-04-23T10:49:47.796Z,18.10
2019-04-23T10:57:13.748Z,18.80
2019-04-23T11:12:46.177Z,18.70
2019-04-23T11:17:49.860Z,18.90
2019-04-23T11:20:30.018Z,18.80
2019-04-23T11:22:51.766Z,19.00
2019-04-23T11:25:36.766Z,19.10
2019-04-23T11:27:59.812Z,19.20
2019-04-23T11:30:33.502Z,19.10
2019-04-23T11:33:15.781Z,19.10
2019-04-23T11:35:39.949Z,19.20
2019-04-23T11:38:21.970Z,19.00
2019-04-23T11:40:35.647Z,18.90
2019-04-23T11:43:09.291Z,19.10
2019-04-23T11:45:50.802Z,19.20
2019-04-23T11:51:24.105Z,19.50
2019-04-23T11:55:44.844Z,19.30
2019-04-23T12:01:11.598Z,19.10
2019-04-23T12:03:54.041Z,19.10
2019-04-23T12:09:36.873Z,19.10
2019-04-23T12:14:46.775Z,19.10
2019-04-23T12:20:07.854Z,19.20
2019-04-23T12:30:06.093Z,19.20
2019-04-23T12:32:59.435Z,19.00
2019-04-23T12:37:55.617Z,18.90
2019-04-23T12:40:25.170Z,18.90
2019-04-23T12:45:31.866Z,19.00
2019-04-23T12:48:09.532Z,19.00
2019-04-23T12:53:10.531Z,19.10
2019-04-23T12:55:40.561Z,19.00
2019-04-23T13:00:51.581Z,19.00
2019-04-23T13:03:30.187Z,18.80
2019-04-23T13:05:39.858Z,18.70
2019-04-23T13:08:26.869Z,18.70
2019-04-23T13:10:45.844Z,18.60
2019-04-23T13:13:38.847Z,18.60
2019-04-23T13:18:26.836Z,18.60
2019-04-23T13:20:51.639Z,18.60
2019-04-23T13:23:30.778Z,18.60
2019-04-23T13:26:16.332Z,18.70
2019-04-23T13:28:43.066Z,18.70
2019-04-23T13:31:12.128Z,18.90
2019-04-23T13:43:52.722Z,19.00
2019-04-23T13:48:48.903Z,19.00
2019-04-23T13:51:25.838Z,18.80
2019-04-23T13:53:57.303Z,18.70
2019-04-23T13:57:06.584Z,18.70
2019-04-23T13:59:18.262Z,18.60
2019-04-23T14:01:46.648Z,18.50
2019-04-23T14:04:20.857Z,18.40
2019-04-23T14:06:43.464Z,18.40
2019-04-23T14:09:20.165Z,18.30
2019-04-23T14:11:41.251Z,18.30
2019-04-23T14:14:34.523Z,18.20
2019-04-23T14:17:00.171Z,18.20
2019-04-23T14:19:21.441Z,18.20
2019-04-23T14:22:08.878Z,18.20
2019-04-23T14:24:32.083Z,18.10
2019-04-23T14:26:59.135Z,18.10
2019-04-23T14:29:39.437Z,18.10
2019-04-23T14:32:10.477Z,18.10
2019-04-23T14:34:37.784Z,18.10
2019-04-23T14:37:10.020Z,18.20
2019-04-23T14:39:42.680Z,18.20
2019-04-23T14:42:21.154Z,18.20
2019-04-23T14:44:40.535Z,18.20
2019-04-23T14:47:23.954Z,18.30
2019-04-23T14:50:18.562Z,18.30
2019-04-23T14:55:37.963Z,18.20
2019-04-23T14:57:35.118Z,18.20
2019-04-23T15:02:44.778Z,18.20
2019-04-23T15:05:11.624Z,18.10
2019-04-23T15:07:42.202Z,18.20
2019-04-23T15:10:31.928Z,18.20
2019-04-23T15:12:59.689Z,18.20
2019-04-23T15:15:38.926Z,18.20
2019-04-23T15:18:09.853Z,18.20
2019-04-23T15:21:12.896Z,18.20
2019-04-23T15:23:40.729Z,18.20
2019-04-23T15:26:39.590Z,18.30
2019-04-23T15:28:09.050Z,18.30
2019-04-23T15:31:10.115Z,18.30
2019-04-23T15:33:50.788Z,18.30
2019-04-23T15:39:16.758Z,18.40
2019-04-23T15:41:52.308Z,18.40
2019-04-23T15:44:14.831Z,18.40
2019-04-23T15:46:56.568Z,18.40
2019-04-23T15:49:44.400Z,18.40
2019-04-23T15:52:27.871Z,18.30
2019-04-23T15:55:49.284Z,18.30
2019-04-23T15:57:49.643Z,18.30
2019-04-23T16:00:10.822Z,18.30
2019-04-23T16:02:16.426Z,18.30
2019-04-23T16:04:51.172Z,18.20
2019-04-23T16:07:35.201Z,18.20
2019-04-23T16:10:26.081Z,18.20
2019-04-23T16:12:58.280Z,18.20
2019-04-23T16:15:42.100Z,18.20
2019-04-23T16:18:13.852Z,18.10
2019-04-23T16:20:50.281Z,18.00
2019-04-23T16:23:22.719Z,18.00
2019-04-23T16:25:58.123Z,18.00
2019-04-23T16:29:01.133Z,17.90
2019-04-23T16:31:15.002Z,17.90
2019-04-23T16:33:58.993Z,17.80
2019-04-23T16:36:24.880Z,17.80
2019-04-23T16:39:02.724Z,17.70
2019-04-23T16:41:37.194Z,17.60
2019-04-23T16:44:16.854Z,17.50
2019-04-23T16:46:39.077Z,17.50
2019-04-23T16:49:17.812Z,17.50
2019-04-23T16:51:43.816Z,17.40
2019-04-23T16:54:25.097Z,17.40
2019-04-23T16:57:14.930Z,17.30
2019-04-23T16:59:24.217Z,17.30
2019-04-23T17:02:13.468Z,17.20
2019-04-23T17:09:55.837Z,17.20
2019-04-23T17:12:16.178Z,17.20
2019-04-23T17:15:02.090Z,17.20
2019-04-23T17:17:23.047Z,17.20
2019-04-23T17:20:10.212Z,17.10
2019-04-23T17:22:24.907Z,17.10
2019-04-23T17:27:39.431Z,17.00
2019-04-23T17:30:03.380Z,17.00
2019-04-23T17:32:46.246Z,16.90
2019-04-23T17:38:42.331Z,16.80
2019-04-23T17:41:07.385Z,16.80
2019-04-23T17:43:39.961Z,16.70
2019-04-23T17:46:18.116Z,16.70
2019-04-23T17:48:49.478Z,16.60
2019-04-23T17:51:40.410Z,16.60
2019-04-23T17:54:24.897Z,16.50
